Date,TemperatureHighF,TemperatureAvgF,TemperatureLowF,DewpointHighF,DewpointAvgF,DewpointLowF,HumidityHigh,HumidityAvg,HumidityLow,PressureMaxIn,PressureMinIn,WindSpeedMaxMPH,WindSpeedAvgMPH,GustSpeedMaxMPH,PrecipitationSumIn
2014-2-21,48.2,43.2,36.1,48.0,40.7,36.0,99,91,80,29.91,29.65,8,2,15,0.14
2014-2-22,56.0,47.2,39.7,38.0,29.5,23.0,86,54,29,30.05,29.92,9,2,17,0.00
2014-2-23,54.7,48.8,43.2,34.0,31.1,29.0,68,51,38,30.01,29.83,8,2,15,0.00
2014-2-24,42.9,35.9,27.7,33.0,18.2,9.0,73,50,34,30.07,29.79,17,5,22,0.00
2014-2-25,32.5,28.9,25.9,17.0,12.1,8.0,56,50,43,30.08,29.92,15,4,17,0.00
2014-2-26,31.4,26.7,21.7,24.0,10.7,-2.0,88,53,33,29.96,29.81,11,3,19,0.01
2014-2-27,31.7,24.7,14.3,17.0,5.5,-11.0,61,45,32,30.09,29.61,20,4,28,0.00
2014-2-28,25.1,17.4,9.9,3.0,-3.6,-11.0,49,40,31,30.43,30.11,14,2,20,0.00
2014-3-1,39.2,30.6,21.2,28.0,15.0,2.0,73,53,40,30.42,30.15,6,1,9,0.00
2014-3-2,41.0,37.4,33.5,28.0,22.7,18.0,69,56,50,30.14,29.97,6,1,8,0.00
2014-3-3,33.1,23.0,19.2,20.0,8.0,1.0,86,54,43,30.33,29.99,8,3,14,0.00
2014-3-4,29.2,22.4,13.7,14.0,6.2,1.0,60,50,34,30.42,30.25,8,2,12,0.00
2014-3-5,38.0,31.7,26.6,15.0,11.6,8.0,58,44,32,30.43,30.20,11,2,16,0.00
2014-3-6,29.7,24.0,16.4,14.0,7.6,0.0,61,50,37,30.62,30.43,11,4,17,0.00
2014-3-7,36.8,31.4,26.6,32.0,24.0,13.0,87,74,57,30.47,29.90,13,4,16,0.00
2014-3-8,57.8,46.1,36.2,33.0,31.3,30.0,85,59,37,29.89,29.75,10,2,16,0.00
2014-3-9,44.4,40.9,37.1,30.0,19.9,12.0,63,45,30,30.01,29.87,13,4,18,0.00
2014-3-10,51.9,43.1,37.0,37.0,26.6,17.0,77,53,40,29.93,29.60,8,2,13,0.00
2014-3-11,66.1,55.2,45.0,40.0,36.6,32.0,65,51,35,29.69,29.55,9,2,15,0.00
2014-3-12,55.1,49.8,36.3,52.0,42.6,30.0,96,77,56,29.66,29.01,12,2,21,0.35
2014-3-13,35.6,24.3,18.5,29.0,6.3,-1.0,76,48,31,30.08,29.16,19,8,31,0.00
2014-3-14,45.2,33.3,22.3,29.0,14.0,1.0,62,46,30,30.22,29.90,9,2,16,0.00
2014-3-15,58.0,50.9,41.6,34.0,29.1,25.0,71,45,28,29.98,29.75,16,5,25,0.00
2014-3-16,45.3,35.3,31.1,27.0,12.3,6.0,52,39,30,30.19,29.98,11,4,18,0.00
2014-3-17,33.2,28.9,23.8,11.0,6.8,-1.0,47,39,29,30.12,30.02,15,4,16,0.00
2014-3-18,41.3,33.8,28.1,27.0,16.0,8.0,75,50,28,30.29,30.11,9,3,17,0.00
2014-3-19,45.6,38.7,31.6,45.0,33.1,26.0,96,81,68,30.31,29.82,11,3,17,0.82
2014-3-20,54.4,46.7,41.5,44.0,33.8,24.0,98,65,36,29.90,29.72,14,5,26,0.06
2014-3-21,52.4,40.6,39.3,25.0,9.2,-99.9,51,36,30,30.04,29.89,12,-101,20,0.00
2014-3-22,64.1,50.8,39.6,40.0,31.3,22.0,77,50,27,30.05,29.74,12,4,22,0.00
2014-3-23,45.1,38.8,29.2,27.0,18.0,-99.9,58,45,31,30.11,29.97,11,-8,17,0.00
2014-3-24,34.5,25.5,22.0,8.0,-5.7,-99.9,53,35,30,30.24,30.10,10,-113,18,0.00
2014-3-25,39.4,30.2,26.6,23.0,2.9,-99.9,68,41,31,30.16,29.85,7,-95,14,0.00
2014-3-26,35.3,27.7,25.2,23.0,-4.4,-99.9,69,37,28,30.22,29.72,16,-133,30,0.00
2014-3-27,43.5,29.9,23.7,26.0,1.1,-99.9,59,41,26,30.41,30.23,11,-114,14,0.00
2014-3-28,60.7,46.2,36.9,52.0,30.1,-99.9,85,66,54,30.27,29.95,7,-82,16,0.04
2014-3-29,58.4,32.7,42.7,51.0,1.7,-99.9,97,64,75,30.18,29.67,14,-288,16,1.74
2014-3-30,46.1,33.4,40.2,45.0,7.7,-99.9,100,70,87,29.66,29.46,18,-237,24,0.79
2014-3-31,55.8,37.1,37.5,37.0,9.1,-99.9,91,54,47,30.07,29.66,19,-186,22,0.03
2014-4-1,59.0,42.4,40.1,36.0,16.7,-99.9,70,48,40,30.12,29.97,8,-113,17,0.00
2014-4-2,54.3,40.8,41.3,45.0,22.2,-99.9,88,69,69,30.14,30.04,4,-135,7,0.01
2014-4-3,64.9,47.5,45.7,44.0,19.2,-99.9,91,46,23,30.12,29.99,6,-109,10,0.00
2014-4-4,46.5,37.0,38.9,42.0,21.4,-99.9,96,76,76,30.07,29.75,12,-121,17,0.13
2014-4-5,54.1,40.2,39.0,43.0,10.6,-99.9,97,50,40,30.06,29.71,23,-152,25,0.03
2014-4-6,61.4,42.1,36.9,33.0,12.2,-99.9,63,40,22,30.21,30.06,9,-103,17,0.00
2014-4-7,51.2,41.1,42.7,47.0,22.1,-99.9,98,65,40,30.21,29.70,8,-114,12,0.60
2014-4-8,64.5,43.7,44.2,58.0,12.7,-99.9,99,54,46,29.67,29.39,16,-218,23,0.03
2014-4-9,61.2,47.9,46.6,37.0,16.8,-99.9,68,39,28,30.02,29.61,12,-103,21,0.00
2014-4-10,57.0,46.1,42.9,40.0,12.4,-99.9,62,35,28,30.21,30.02,14,-116,17,0.00
2014-4-11,76.3,56.2,54.4,52.0,27.9,-99.9,71,45,36,30.03,29.92,8,-114,13,0.00
2014-4-12,72.6,54.5,53.0,52.0,25.1,-99.9,82,45,26,30.22,29.99,7,-113,14,0.00
2014-4-13,76.0,56.2,53.4,56.0,32.7,-99.9,85,55,47,30.19,29.96,10,-115,14,0.00
2014-4-14,73.8,60.6,57.5,58.0,45.0,-99.9,87,67,53,30.02,29.85,14,-61,17,0.00
2014-4-15,60.0,48.2,35.5,59.0,37.0,-99.9,97,84,86,29.89,29.52,20,-91,26,0.59
2014-4-16,48.3,35.2,32.1,33.0,5.1,-99.9,94,43,32,30.56,29.89,13,-132,23,0.07
2014-4-17,45.7,36.8,36.8,33.0,14.5,-99.9,75,54,41,30.72,30.56,11,-103,14,0.00
2014-4-18,48.5,38.0,35.5,36.0,20.8,-99.9,81,64,55,30.60,30.27,6,-83,10,0.00
2014-4-19,66.2,52.0,41.2,39.0,25.0,-99.9,82,45,22,30.33,30.21,10,-50,16,0.00
2014-4-20,55.8,47.5,45.6,37.0,21.5,-99.9,66,42,36,30.48,30.32,9,-60,17,0.00
2014-4-21,65.1,48.4,42.2,43.0,21.9,-99.9,75,46,25,30.32,29.88,6,-93,10,0.00
2014-4-22,70.2,54.4,50.4,55.0,34.2,-99.9,85,61,49,29.87,29.49,8,-103,12,0.00
2014-4-23,62.1,47.8,45.4,51.0,22.5,-99.9,72,50,42,29.81,29.48,14,-110,23,0.00
2014-4-24,61.9,48.2,43.1,33.0,10.4,-99.9,62,29,17,30.01,29.82,14,-80,20,0.00
2014-4-25,61.2,47.5,47.1,43.0,15.0,-99.9,77,37,26,30.04,29.77,13,-102,14,0.00
2014-4-26,66.6,48.6,45.3,48.0,33.0,-99.9,95,70,42,29.86,29.69,7,-81,14,0.83
2014-4-27,58.4,51.2,47.3,43.0,30.8,-99.9,74,51,42,30.11,29.86,9,-39,16,0.00
2014-4-28,65.1,52.0,47.0,43.0,28.1,-99.9,70,48,28,30.12,30.00,7,-63,12,0.00
2014-4-29,51.8,42.0,43.0,43.0,25.1,-99.9,88,68,63,30.41,30.12,12,-102,19,0.08
2014-4-30,48.7,26.1,41.4,49.0,-16.9,-99.9,100,54,83,30.40,29.97,12,-418,15,2.29
2014-5-1,78.9,48.2,55.7,64.0,10.2,-99.9,99,49,40,29.96,29.66,6,-301,11,0.06
2014-5-2,67.7,57.0,57.5,53.0,27.8,-99.9,79,43,34,29.84,29.69,17,-102,17,0.00
2014-5-3,70.5,57.9,54.9,51.0,34.0,-99.9,75,48,36,29.87,29.73,7,-61,12,0.01
2014-5-4,64.2,56.1,54.8,51.0,34.0,-99.9,82,50,28,29.78,29.64,19,-36,28,0.00
2014-5-5,68.7,56.0,50.8,39.0,24.4,-99.9,62,36,21,29.89,29.78,11,-61,22,0.00
2014-5-6,69.6,58.9,53.8,38.0,27.3,-99.9,54,34,25,30.05,29.86,10,-40,30,0.00
2014-5-7,69.4,54.3,53.2,43.0,21.3,-99.9,57,35,28,30.23,30.06,7,-94,12,0.00
2014-5-8,57.8,50.0,53.0,54.0,37.5,-99.9,95,81,58,30.18,30.08,11,-95,11,0.27
2014-5-9,63.2,51.1,54.4,61.0,36.2,-99.9,98,82,90,30.18,30.00,7,-137,11,0.11
2014-5-10,84.0,60.1,55.1,66.0,41.6,-99.9,100,72,51,30.00,29.82,13,-112,22,0.21
2014-5-11,82.5,66.6,63.0,62.0,35.1,-99.9,93,42,22,30.06,29.85,12,-83,14,0.11
2014-5-12,85.0,68.1,65.1,63.0,41.9,-99.9,70,48,41,30.11,30.01,7,-94,13,0.00
2014-5-13,73.0,56.7,52.4,65.0,31.5,-99.9,80,53,38,30.28,29.99,13,-116,16,0.00
2014-5-14,68.7,54.0,51.6,59.0,39.9,-99.9,94,73,63,30.30,30.23,5,-82,9,0.00
2014-5-15,71.7,54.1,57.0,67.0,37.0,-99.9,98,79,82,30.23,30.08,9,-154,13,0.13
2014-5-16,67.5,58.8,62.2,66.0,48.3,-99.9,99,86,92,30.08,29.80,9,-91,21,2.10
2014-5-17,70.5,59.2,54.5,60.0,37.6,-99.9,94,55,36,30.09,29.82,7,-62,13,0.00
2014-5-18,67.2,58.1,54.3,44.0,31.4,-99.9,62,42,32,30.18,30.09,9,-50,14,0.00
2014-5-19,72.2,59.7,53.3,43.0,29.3,-99.9,49,36,26,30.20,30.05,9,-52,16,0.00
2014-5-20,79.6,64.8,58.3,45.0,31.1,-99.9,57,35,22,30.12,29.95,8,-65,14,0.00
2014-5-21,75.4,64.2,64.3,57.0,37.6,-99.9,73,46,38,29.98,29.88,8,-86,13,0.00
2014-5-22,66.1,57.5,58.7,61.0,48.4,-99.9,94,84,74,29.88,29.80,5,-62,9,0.45
2014-5-23,69.6,56.1,57.2,61.0,42.6,-99.9,96,78,65,29.93,29.82,8,-94,12,1.15
2014-5-24,69.3,57.2,57.2,58.0,45.9,-99.9,95,78,60,30.07,29.90,7,-62,10,0.26
2014-5-25,82.5,65.1,56.3,58.0,44.2,-99.9,96,58,28,30.09,30.00,6,-62,9,0.00
2014-5-26,87.6,70.5,65.8,56.0,38.7,-99.9,64,39,30,30.04,29.87,8,-92,13,0.00
2014-5-27,87.5,74.9,71.8,67.0,50.3,-99.9,67,49,41,29.89,29.74,7,-61,16,0.00
2014-5-28,75.3,54.5,54.0,64.0,43.2,-99.9,89,77,65,30.16,29.78,12,-59,16,0.00
2014-5-29,64.2,51.4,51.6,49.0,32.2,-99.9,79,61,55,30.22,30.15,9,-91,12,0.00
2014-5-30,76.9,62.7,55.8,58.0,44.1,-99.9,79,57,42,30.15,29.96,9,-42,12,0.02
2014-5-31,71.5,59.1,58.6,55.0,37.7,-99.9,78,56,42,30.28,30.05,17,-80,21,0.03
2014-6-1,78.5,63.5,57.1,48.0,33.5,-99.9,69,40,22,30.35,30.25,5,-61,10,0.00
2014-6-2,81.9,66.8,60.1,59.0,39.0,-99.9,63,44,38,30.26,30.00,8,-82,12,0.00
2014-6-3,88.1,68.8,67.1,70.0,47.8,-99.9,89,60,46,30.02,29.80,11,-92,14,0.12
2014-6-4,84.7,66.0,62.6,65.0,49.0,-99.9,92,68,45,29.84,29.72,8,-85,15,0.00
2014-6-5,77.6,61.8,61.6,64.0,42.6,-99.9,96,66,40,29.78,29.63,10,-102,17,0.36
2014-6-6,78.5,66.0,61.7,53.0,43.6,-99.9,65,51,41,29.93,29.78,8,-51,14,0.00
2014-6-7,84.9,70.2,63.8,58.0,46.2,-99.9,68,49,34,29.99,29.90,8,-52,13,0.00
2014-6-8,87.9,70.0,67.8,60.0,42.5,-99.9,72,47,33,29.95,29.86,7,-92,12,0.00
2014-6-9,72.7,60.6,62.8,66.0,47.1,-99.9,96,78,56,29.95,29.89,9,-94,9,0.62
2014-6-10,77.7,65.6,65.1,70.0,53.1,-99.9,96,79,76,29.96,29.91,6,-84,9,0.00
2014-6-11,71.0,61.5,62.4,68.0,49.1,-99.9,95,77,68,30.10,29.97,10,-72,13,0.01
2014-6-12,74.1,60.3,60.5,70.0,48.5,-99.9,96,83,85,30.08,29.91,5,-94,13,0.00
2014-6-13,81.2,63.2,64.0,72.0,51.4,-99.9,100,84,71,29.91,29.71,10,-95,12,1.65
2014-6-14,76.8,64.1,61.9,68.0,44.9,-99.9,97,62,46,30.02,29.76,12,-81,19,0.00
2014-6-15,81.6,66.1,60.7,58.0,44.9,-99.9,79,55,41,30.09,30.02,9,-60,14,0.00
2014-6-16,82.3,71.8,67.0,63.0,50.4,-99.9,79,55,41,30.15,30.04,6,-37,11,0.00
2014-6-17,92.1,72.9,70.0,72.0,49.8,-99.9,80,57,46,30.06,29.87,5,-106,10,0.00
2014-6-18,91.7,78.7,80.4,72.0,51.3,-99.9,74,47,36,29.95,29.79,12,-81,17,0.00
2014-6-19,80.9,67.3,70.3,69.0,48.4,-99.9,86,65,57,30.00,29.92,11,-103,15,0.07
2014-6-20,82.1,68.9,67.3,65.0,36.5,-99.9,78,38,27,30.00,29.87,9,-85,12,0.00
2014-6-21,79.1,66.8,64.0,58.0,41.4,-99.9,75,47,37,29.96,29.88,9,-61,14,0.00
2014-6-22,81.6,64.3,65.1,59.0,41.3,-99.9,78,54,38,30.01,29.90,7,-92,9,0.00
2014-6-23,85.7,70.3,66.4,63.0,48.8,-99.9,77,55,40,30.14,30.02,8,-62,17,0.00
2014-6-24,82.0,71.2,68.2,64.0,54.6,-99.9,80,62,47,30.15,30.01,9,-42,20,0.00
2014-6-25,85.5,67.7,70.0,74.0,49.5,-99.9,92,70,66,30.02,29.82,8,-119,15,0.00
2014-6-26,87.7,74.5,71.4,71.0,57.9,-99.9,94,67,53,29.95,29.79,10,-63,11,0.10
2014-6-27,84.1,70.3,68.9,67.0,51.7,-99.9,87,61,43,30.21,29.96,6,-62,10,0.00
2014-6-28,88.8,68.9,68.8,62.0,41.5,-99.9,75,49,25,30.26,30.20,9,-103,14,0.00
2014-6-29,83.1,69.8,68.5,65.0,45.7,-99.9,71,51,45,30.25,30.11,9,-82,12,0.00
2014-6-30,86.4,72.3,68.8,69.0,54.8,-99.9,89,64,48,30.12,29.93,9,-66,13,0.00
2014-7-1,91.3,72.8,72.8,74.0,51.6,-99.9,85,61,55,29.95,29.80,13,-108,15,0.00
2014-7-2,91.2,75.6,72.6,76.0,59.6,-99.9,93,69,57,29.97,29.81,12,-72,18,1.42
2014-7-3,88.9,72.8,70.2,76.0,58.5,-99.9,94,74,65,30.01,29.85,11,-82,19,0.46
2014-7-4,74.6,64.3,66.6,70.0,47.9,-99.9,93,71,57,29.99,29.88,15,-94,18,0.12
2014-7-5,83.4,71.8,64.5,55.0,47.4,-99.9,64,46,33,30.14,30.00,11,-30,17,0.00
2014-7-6,88.3,70.8,68.5,63.0,40.6,-99.9,66,43,33,30.09,29.91,8,-103,15,0.00
2014-7-7,94.3,76.3,72.8,69.0,50.2,-99.9,74,50,40,29.93,29.72,7,-92,15,0.00
2014-7-8,96.2,76.7,74.3,72.0,51.7,-99.9,84,55,40,29.84,29.65,9,-93,22,0.05
2014-7-9,90.0,74.3,72.6,72.0,53.1,-99.9,83,59,40,29.93,29.76,9,-82,12,0.00
2014-7-10,85.9,71.9,72.3,66.0,58.4,61.0,76,57,45,30.12,29.93,9,2,14,0.00
2014-7-11,87.5,74.2,71.2,67.0,58.6,54.0,81,57,36,30.21,30.11,10,2,13,0.00
2014-7-12,87.9,73.2,71.3,67.0,60.0,57.0,84,60,38,30.22,30.12,7,1,14,0.00
2014-7-13,82.8,69.5,71.6,72.0,63.4,65.0,88,72,69,30.12,29.88,12,2,16,0.01
2014-7-14,87.3,72.4,71.9,75.0,67.5,70.0,96,79,64,29.94,29.81,10,1,16,1.23
2014-7-15,89.2,70.3,70.7,77.0,67.1,70.0,96,82,65,29.81,29.72,3,1,12,0.95
2014-7-16,84.8,69.7,70.3,71.0,57.2,56.0,96,60,41,29.87,29.73,7,1,13,0.00
2014-7-17,83.6,73.6,69.9,59.0,54.8,53.0,64,49,41,30.09,29.86,7,2,10,0.00
2014-7-18,84.8,70.2,67.7,60.0,49.4,47.0,72,43,32,30.21,30.09,10,2,11,0.00
2014-7-19,78.7,70.8,70.3,63.0,54.8,54.0,72,53,47,30.24,30.16,6,1,10,0.00
2014-7-20,77.8,67.8,67.5,65.0,58.4,58.0,82,67,51,30.16,30.09,9,2,12,0.00
2014-7-21,86.1,70.5,67.3,66.0,59.4,61.0,84,63,44,30.18,30.12,7,1,9,0.00
2014-7-22,91.3,74.9,71.7,71.0,62.7,62.0,74,61,51,30.17,30.04,9,1,14,0.00
2014-7-23,91.7,76.7,73.0,76.0,66.4,63.0,87,66,56,30.03,29.75,10,2,17,0.17
2014-7-24,82.1,68.9,73.5,73.0,56.3,57.0,87,56,45,29.89,29.77,11,2,12,0.00
2014-7-25,85.7,70.8,68.4,64.0,53.1,53.0,72,49,36,30.01,29.89,7,2,10,0.00
2014-7-26,84.1,71.7,69.9,70.0,60.8,59.0,85,64,47,29.99,29.88,5,1,10,0.00
2014-7-27,89.9,73.6,71.2,74.0,64.5,67.0,90,67,49,29.89,29.63,5,1,10,0.00
2014-7-28,85.2,68.1,69.4,74.0,58.2,60.0,94,62,48,29.67,29.50,10,3,20,0.40
2014-7-29,77.0,64.4,65.0,59.0,49.1,51.0,72,51,41,29.96,29.67,6,2,14,0.00
2014-7-30,81.4,68.9,66.1,62.0,51.4,48.0,72,50,33,30.03,29.94,5,1,9,0.00
2014-7-31,84.3,70.4,68.9,68.0,57.7,58.0,78,58,47,30.13,30.03,11,2,13,0.00
2014-8-1,85.7,70.9,70.7,70.0,62.9,65.0,87,69,53,30.20,30.13,8,1,14,0.00
2014-8-2,74.7,62.3,64.7,68.0,56.6,62.0,92,71,72,30.18,30.09,12,2,18,0.10
2014-8-3,77.1,65.6,66.0,67.0,60.3,63.0,94,76,66,30.11,30.02,5,1,6,0.06
2014-8-4,86.0,71.0,70.2,71.0,62.5,66.0,90,68,56,30.05,30.00,9,1,10,0.00
2014-8-5,92.5,72.3,72.9,69.0,58.7,62.0,79,54,40,30.03,29.89,5,1,11,0.00
2014-8-6,85.2,71.4,72.5,66.0,56.8,58.0,79,54,41,29.89,29.81,5,1,12,0.00
2014-8-7,84.6,67.9,68.8,60.0,48.4,50.0,64,42,34,30.00,29.88,8,2,14,0.00
2014-8-8,83.7,71.4,67.5,57.0,51.3,52.0,67,46,35,30.08,30.00,7,1,11,0.00
2014-8-9,87.2,73.8,70.9,62.0,53.3,51.0,69,46,30,30.11,30.04,6,1,12,0.00
2014-8-10,88.0,72.6,72.8,63.0,53.6,55.0,71,46,33,30.12,30.06,9,1,9,0.00
2014-8-11,88.1,72.2,73.2,68.0,55.7,54.0,81,51,33,30.12,30.08,9,1,10,0.00
2014-8-12,79.4,69.2,70.7,72.0,63.4,66.0,92,74,69,30.07,29.85,12,3,19,0.31
2014-8-13,83.4,61.5,69.0,71.0,55.2,63.0,96,64,54,29.84,29.63,15,2,22,0.68
2014-8-14,79.5,66.6,64.2,63.0,50.5,50.0,72,51,39,29.88,29.76,7,2,14,0.00
2014-8-15,73.5,59.3,63.5,58.0,43.9,47.0,66,46,47,29.97,29.87,7,1,11,0.00
2014-8-16,81.2,58.2,64.7,63.0,43.8,51.0,70,43,41,30.00,29.89,5,1,12,0.00
2014-8-17,83.3,68.0,68.1,65.0,53.7,55.0,77,53,43,29.88,29.79,6,1,13,0.00
2014-8-18,82.7,65.9,66.2,63.0,49.8,54.0,71,47,39,29.91,29.80,5,1,12,0.00
2014-8-19,81.4,69.5,67.3,67.0,59.9,57.0,83,66,57,29.93,29.84,6,1,9,0.00
2014-8-20,84.0,68.5,70.1,67.0,56.1,57.0,86,57,43,30.01,29.92,7,1,10,0.00
2014-8-21,82.1,66.1,70.5,68.0,56.3,57.0,90,60,51,30.05,30.00,6,1,13,0.09
2014-8-22,76.9,62.9,66.9,66.0,56.0,60.0,93,67,63,30.04,29.99,6,1,8,0.22
2014-8-23,73.9,63.8,67.7,63.0,56.3,59.0,83,68,62,30.10,30.02,10,1,12,0.00
2014-8-24,80.6,65.5,65.8,62.0,55.5,58.0,86,63,48,30.14,30.09,11,1,13,0.00
2014-8-25,88.4,67.8,67.3,64.0,52.6,59.0,81,49,40,30.16,30.09,9,1,10,0.00
2014-8-26,87.8,71.5,72.7,70.0,60.1,63.0,83,60,49,30.16,30.06,4,1,13,0.00
2014-8-27,92.8,78.0,71.4,69.0,63.3,61.0,80,58,43,30.07,29.84,6,1,10,0.00
2014-8-28,82.2,68.1,68.1,70.0,51.5,49.0,79,48,38,30.04,29.82,8,2,16,0.00
2014-8-29,79.9,63.0,65.8,57.0,47.6,51.0,65,49,39,30.24,30.04,8,2,11,0.00
2014-8-30,78.7,64.3,66.4,68.0,54.7,56.0,82,60,53,30.26,30.14,8,1,11,0.00
2014-8-31,92.4,68.6,72.8,75.0,62.3,66.0,93,68,53,30.15,29.93,6,1,18,0.29
2014-9-1,91.0,74.1,75.3,76.0,65.4,71.0,90,67,56,30.00,29.90,5,1,7,0.00
2014-9-2,94.7,77.1,78.0,76.0,65.8,69.0,88,61,47,29.92,29.78,7,1,15,0.00
2014-9-3,85.8,70.5,73.8,69.0,54.1,56.0,72,47,36,30.09,29.80,7,2,19,0.00
2014-9-4,88.2,71.2,73.5,68.0,54.6,57.0,73,48,35,30.18,30.09,5,1,13,0.00
2014-9-5,87.5,68.2,73.0,75.0,61.9,66.0,89,67,65,30.16,30.00,5,1,11,0.00
2014-9-6,92.2,71.1,69.7,75.0,63.5,66.0,89,68,57,30.00,29.81,8,2,16,0.17
2014-9-7,79.5,63.5,66.7,66.0,49.9,52.0,89,51,43,30.18,29.92,9,2,13,0.00
2014-9-8,76.3,64.5,66.9,63.0,51.6,52.0,79,56,48,30.30,30.18,8,2,12,0.00
2014-9-9,72.2,59.0,65.0,65.0,52.3,54.0,90,66,65,30.27,30.13,11,3,16,0.04
2014-9-10,77.2,56.6,63.3,64.0,49.5,58.0,85,60,57,30.13,30.03,7,2,10,0.00
2014-9-11,84.3,64.5,68.1,71.0,56.9,63.0,87,62,64,30.01,29.80,6,1,13,0.00
2014-9-12,77.1,70.9,63.2,56.0,53.8,51.0,71,55,47,30.17,30.07,8,2,13,0.00
2014-9-13,69.6,54.9,61.7,62.0,49.5,51.0,96,68,65,30.17,30.08,11,2,14,0.30
2014-9-14,72.2,49.4,54.9,53.0,37.5,46.0,80,45,40,30.27,30.14,5,1,13,0.00
2014-9-15,73.0,56.7,57.2,55.0,42.9,45.0,74,51,39,30.23,30.07,8,1,13,0.00
2014-9-16,67.5,49.2,62.1,60.0,42.7,53.0,85,56,63,30.07,29.95,3,0,7,0.50
2014-9-17,74.1,56.3,59.8,56.0,41.1,43.0,75,46,37,30.05,29.94,5,1,11,0.00
2014-9-18,77.0,59.9,61.0,56.0,43.6,46.0,79,46,34,30.09,29.94,7,1,14,0.00
2014-9-19,65.2,53.5,55.5,52.0,42.7,43.0,71,56,54,30.37,30.09,10,3,17,0.00
2014-9-20,74.6,60.4,58.8,66.0,52.5,50.0,90,65,57,30.33,30.05,10,1,17,0.00
2014-9-21,75.8,61.8,67.3,70.0,58.2,65.0,97,74,79,30.04,29.59,3,0,7,0.18
2014-9-22,72.2,57.2,57.0,68.0,44.8,42.0,88,52,46,30.16,29.60,13,3,16,0.00
2014-9-23,73.5,54.5,53.2,55.0,40.5,41.0,77,49,39,30.40,30.16,6,1,13,0.00
2014-9-24,70.7,56.6,59.3,59.0,47.8,50.0,83,61,50,30.54,30.40,11,2,14,0.00
2014-9-25,63.8,50.0,59.1,59.0,46.0,53.0,92,68,70,30.46,30.20,12,3,21,0.18
2014-9-26,78.8,58.5,60.4,57.0,45.4,48.0,83,49,41,30.21,30.13,8,1,11,0.00
2014-9-27,84.8,64.0,65.4,61.0,49.7,56.0,77,49,39,30.21,30.14,7,1,10,0.00
2014-9-28,85.1,64.2,64.7,64.0,52.7,58.0,89,55,43,30.16,30.00,5,0,9,0.00
2014-9-29,79.6,62.0,68.1,64.0,52.3,59.0,81,57,50,29.99,29.88,4,1,8,0.00
2014-9-30,72.3,53.0,63.6,63.0,46.7,53.0,89,59,53,29.98,29.90,7,1,10,0.01
2014-10-1,64.6,47.3,61.5,61.0,44.5,57.0,93,65,82,30.07,29.97,9,2,13,0.01
2014-10-2,68.1,42.5,61.4,58.0,37.3,56.0,83,50,68,30.14,30.06,6,1,13,0.00
2014-10-3,71.3,53.1,57.8,58.0,45.4,52.0,85,60,55,30.11,29.85,7,1,11,0.00
2014-10-4,70.1,51.4,54.2,68.0,45.6,39.0,97,63,55,29.84,29.49,11,2,20,1.19
2014-10-5,61.2,46.0,46.4,40.0,31.9,35.0,68,45,43,29.99,29.69,9,2,15,0.00
2014-10-6,70.3,53.4,48.7,55.0,41.5,40.0,80,53,41,30.07,29.99,11,2,19,0.00
2014-10-7,72.4,57.1,64.0,63.0,48.4,52.0,88,59,51,30.06,29.91,7,1,10,0.01
2014-10-8,73.2,58.8,63.8,64.0,45.6,42.0,92,52,41,29.94,29.78,9,3,17,0.05
2014-10-9,69.1,54.9,57.1,43.0,35.4,39.0,60,38,35,30.05,29.93,20,2,21,0.00
2014-10-10,63.4,51.1,55.1,46.0,35.3,39.0,61,43,42,30.12,30.03,4,1,10,0.00
2014-10-11,59.8,41.4,51.9,52.0,37.0,45.0,95,62,59,30.16,30.02,9,1,13,0.15
2014-10-12,64.7,47.2,49.9,49.0,35.2,34.0,86,51,35,30.31,30.16,7,1,12,0.00
2014-10-13,64.9,48.8,52.2,62.0,43.9,45.0,96,65,66,30.33,30.23,6,0,9,0.06
2014-10-14,76.6,54.4,63.2,67.0,50.2,62.0,96,64,69,30.23,30.10,10,2,15,0.00
2014-10-15,77.5,60.0,68.4,70.0,56.6,65.0,96,73,76,30.10,29.83,9,2,23,0.51
2014-10-16,73.7,53.9,62.0,69.0,49.5,57.0,97,66,62,29.82,29.67,5,1,10,0.14
2014-10-17,74.0,54.0,60.1,58.0,45.2,52.0,85,57,48,29.74,29.66,7,1,11,0.00
2014-10-18,70.2,52.9,57.3,58.0,43.0,45.0,89,55,50,29.70,29.55,11,2,16,0.00
2014-10-19,57.1,40.5,44.9,46.0,27.7,29.0,68,43,41,30.05,29.70,12,3,19,0.00
2014-10-20,61.2,43.6,43.6,48.0,31.0,30.0,74,46,44,30.12,29.95,5,1,9,0.00
2014-10-21,67.0,51.1,55.9,57.0,43.7,47.0,87,61,60,29.96,29.81,8,1,11,0.00
2014-10-22,58.7,32.5,52.1,56.0,30.3,50.0,93,50,78,29.91,29.70,19,4,22,0.22
2014-10-23,53.9,34.1,50.4,50.0,31.9,47.0,93,58,79,29.76,29.68,7,1,18,0.27
2014-10-24,63.7,45.2,51.8,50.0,36.6,42.0,81,54,55,29.82,29.74,6,1,14,0.00
2014-10-25,68.0,51.0,52.4,49.0,37.0,39.0,64,46,45,29.86,29.55,7,2,11,0.00
2014-10-26,62.7,48.0,55.5,50.0,33.1,37.0,68,42,41,29.83,29.53,13,3,19,0.00
2014-10-27,63.4,46.7,50.3,43.0,31.8,39.0,66,41,41,30.02,29.82,11,2,14,0.00
2014-10-28,74.6,50.0,53.0,59.0,41.3,42.0,88,54,48,30.04,29.90,5,0,8,0.00
2014-10-29,72.8,51.1,54.4,60.0,43.5,44.0,85,59,44,29.93,29.81,10,2,18,0.00
2014-10-30,59.6,41.1,48.9,48.0,30.8,37.0,86,46,49,30.01,29.92,6,1,12,0.00
2014-10-31,54.3,40.4,47.1,48.0,32.5,35.0,91,54,59,30.01,29.85,10,3,18,0.03
2014-11-1,48.4,20.4,44.4,46.0,18.3,39.0,93,37,76,29.85,29.74,15,2,21,0.25
2014-11-2,48.3,30.2,41.3,31.0,17.9,21.0,63,34,38,30.04,29.73,14,4,25,0.00
2014-11-3,61.7,43.2,40.8,33.0,22.9,24.0,62,33,25,30.14,30.04,10,2,20,0.00
2014-11-4,70.3,49.4,53.5,43.0,26.3,26.0,55,27,24,30.16,30.01,6,1,11,0.00
2014-11-5,64.2,47.5,56.9,47.0,31.7,34.0,63,38,35,30.13,29.99,7,1,15,0.00
2014-11-6,57.0,21.9,48.7,51.0,20.0,38.0,96,37,50,30.12,29.56,6,0,7,0.21
2014-11-7,52.9,33.1,40.4,40.0,24.5,29.0,76,45,54,29.93,29.56,11,4,22,0.00
2014-11-8,48.4,36.0,37.4,36.0,23.9,25.0,67,46,47,30.04,29.91,8,2,16,0.00
2014-11-9,56.7,41.8,46.5,39.0,29.8,35.0,75,47,46,30.01,29.89,9,1,12,0.00
2014-11-10,62.4,43.2,44.3,47.0,31.7,34.0,84,48,39,30.17,30.01,5,0,9,0.00
2014-11-11,64.9,45.9,50.1,58.0,42.8,47.0,97,67,74,30.14,29.89,4,1,11,0.00
2014-11-12,65.0,44.0,48.0,61.0,38.4,36.0,98,59,50,30.07,29.86,7,1,16,0.00
2014-11-13,48.7,34.6,37.5,38.0,26.3,30.0,92,54,52,30.11,29.98,4,1,10,0.19
2014-11-14,42.4,28.2,36.0,36.0,15.6,18.0,92,36,38,30.18,29.94,12,3,17,0.01
2014-11-15,42.2,30.1,34.4,23.0,16.2,18.0,61,38,40,30.36,30.18,11,2,15,0.00
2014-11-16,44.2,31.1,35.9,35.0,20.7,21.0,75,43,50,30.38,30.10,5,0,8,0.01
2014-11-17,48.1,14.2,41.1,47.0,13.7,35.0,97,30,76,30.10,29.50,5,0,15,0.84
2014-11-18,32.2,19.8,24.3,12.0,5.3,6.0,53,29,35,30.10,29.59,16,5,24,0.00
2014-11-19,34.7,22.6,22.7,19.0,8.8,7.0,55,36,36,30.27,30.06,10,2,18,0.00
2014-11-20,45.7,30.3,31.5,27.0,15.8,11.0,56,36,36,30.05,29.83,12,3,26,0.00
2014-11-21,36.6,26.2,28.2,14.0,10.0,10.0,54,35,37,30.50,30.03,17,4,20,0.00
2014-11-22,43.9,30.1,28.4,25.0,15.1,13.0,62,35,37,30.49,30.19,9,2,14,0.00
2014-11-23,57.1,39.3,43.6,52.0,27.4,25.0,92,45,35,30.21,29.97,6,1,15,0.00
2014-11-24,66.4,46.2,55.1,62.0,42.9,52.0,96,63,78,29.96,29.56,8,1,11,0.04
2014-11-25,66.6,42.2,51.0,60.0,27.5,29.0,79,38,37,30.16,29.72,11,2,18,0.00
2014-11-26,51.7,11.7,34.3,35.0,10.7,32.0,96,28,48,30.19,29.75,12,2,20,0.64
2014-11-27,38.0,24.6,35.1,34.0,20.9,27.0,90,53,71,30.05,29.84,8,2,14,0.02
2014-11-28,37.1,24.0,29.4,27.0,14.0,14.0,76,42,50,30.27,30.04,12,2,18,0.00
2014-11-29,43.9,27.4,29.0,35.0,16.5,14.0,74,44,49,30.36,30.21,4,0,9,0.00
2014-11-30,53.9,37.7,43.8,43.0,28.5,34.0,74,47,52,30.21,30.06,5,0,8,0.00
2014-12-1,64.2,39.0,42.6,51.0,31.5,31.0,81,51,61,30.44,30.06,8,2,13,0.10
2014-12-2,43.2,27.6,35.2,42.0,22.8,21.0,95,54,57,30.62,30.29,13,3,16,0.10
2014-12-3,46.8,22.7,44.2,45.0,21.3,35.0,96,45,68,30.27,29.95,11,2,18,0.11
2014-12-4,45.5,28.8,37.9,28.0,17.2,20.0,67,36,45,30.51,30.21,11,2,12,0.00
2014-12-5,45.1,31.3,35.5,44.0,27.2,25.0,96,62,61,30.58,30.33,7,2,12,0.52
2014-12-6,49.8,15.6,46.0,49.0,15.1,45.0,97,30,90,30.33,30.08,5,0,7,0.69
2014-12-7,40.6,24.3,30.8,28.0,10.8,3.0,72,30,31,30.60,30.18,15,5,23,0.00
2014-12-8,36.2,22.5,26.4,33.0,16.4,0.0,87,53,28,30.67,30.34,16,5,19,0.00
2014-12-9,44.3,9.9,35.7,44.0,9.5,33.0,100,24,87,30.33,29.62,13,2,24,0.46
2014-12-10,38.7,19.3,32.3,35.0,17.7,31.0,93,47,83,29.66,29.57,12,3,18,0.04
2014-12-11,37.3,24.7,32.6,30.0,19.1,24.0,83,51,59,29.86,29.61,10,2,19,0.00
2014-12-12,37.3,19.0,32.9,27.0,13.6,23.0,75,37,63,29.98,29.86,8,2,15,0.00